sensor_id;sensor_type;location;lat;lon;timestamp;P1;durP1;ratioP1;P2;durP2;ratioP2
55527;SDS011;52818;43.308;21.916;2023-02-24T00:01:46;24.30;;;15.50;;
55527;SDS011;52818;43.308;21.916;2023-02-24T00:03:45;21.40;;;15.00;;
55527;SDS011;52818;43.308;21.916;2023-02-24T00:05:47;23.70;;;15.70;;
55527;SDS011;52818;43.308;21.916;2023-02-24T00:07:45;22.80;;;15.40;;
55527;SDS011;52818;43.308;21.916;2023-02-24T00:09:45;25.90;;;16.90;;
55527;SDS011;52818;43.308;21.916;2023-02-24T00:11:47;26.80;;;16.40;;
55527;SDS011;52818;43.308;21.916;2023-02-24T00:13:45;;;;18.90;;
55527;SDS011;52818;43.308;21.916;2023-02-24T00:15:45;22.40;;;15.10;;
55527;SDS011;52818;43.308;21.916;2023-02-24T00:19:46;22.00;;;15.30;;
55527;SDS011;52818;43.308;21.916;2023-02-24T00:21:49;20.40;;;14.00;;
55527;SDS011;52818;43.308;21.916;2023-02-24T00:23:46;18.20;;;12.90;;
55527;SDS011;52818;43.308;21.916;2023-02-24T00:25:46;19.60;;;13.30;;
55527;SDS011;52818;43.308;21.916;2023-02-24T00:27:46;18.00;;;13.10;;
55527;SDS011;52818;43.308;21.916;2023-02-24T00:29:46;19.30;;;12.60;;
55527;SDS011;52818;43.308;21.916;2023-02-24T00:31:48;17.70;;;13.10;;
55527;SDS011;52818;43.308;21.916;2023-02-24T00:33:46;19.00;;;12.60;;
55527;SDS011;52818;43.308;21.916;2023-02-24T00:35:53;18.70;;;13.00;;
55527;SDS011;52818;43.308;21.916;2023-02-24T00:37:47;15.40;;;11.70;;
55527;SDS011;52818;43.308;21.916;2023-02-24T00:39:48;18.10;;;12.30;;
55527;SDS011;52818;43.308;21.916;2023-02-24T00:41:48;18.30;;;12.50;;
55527;SDS011;52818;43.308;21.916;2023-02-24T00:43:52;21.00;;;14.30;;
55527;SDS011;52818;43.308;21.916;2023-02-24T00:45:48;21.10;;;14.10;;
55527;SDS011;52818;43.308;21.916;2023-02-24T00:49:51;18.70;;;14.20;;
55527;SDS011;52818;43.308;21.916;2023-02-24T00:51:48;18.30;;;12.90;;
55527;SDS011;52818;43.308;21.916;2023-02-24T00:53:50;20.30;;;14.10;;
55527;SDS011;52818;43.308;21.916;2023-02-24T00:55:57;33.40;;;20.30;;
55527;SDS011;52818;43.308;21.916;2023-02-24T00:57:48;46.40;;;30.40;;
55527;SDS011;52818;43.308;21.916;2023-02-24T00:59:48;74.10;;;49.10;;
55527;SDS011;52818;43.308;21.916;2023-02-24T01:01:48;30.60;;;21.70;;
55527;SDS011;52818;43.308;21.916;2023-02-24T01:03:48;30.80;;;21.50;;
55527;SDS011;52818;43.308;21.916;2023-02-24T01:05:48;18.00;;;12.70;;
55527;SDS011;52818;43.308;21.916;2023-02-24T01:07:48;20.40;;;15.30;;
55527;SDS011;52818;43.308;21.916;2023-02-24T01:09:48;32.00;;;25.30;;
55527;SDS011;52818;43.308;21.916;2023-02-24T01:11:48;26.20;;;19.70;;
55527;SDS011;52818;43.308;21.916;2023-02-24T01:13:49;24.90;;;18.00;;
55527;SDS011;52818;43.308;21.916;2023-02-24T01:15:49;24.40;;;17.70;;
55527;SDS011;52818;43.308;21.916;2023-02-24T01:17:49;25.10;;;17.80;;
55527;SDS011;52818;43.308;21.916;2023-02-24T01:19:49;25.40;;;18.60;;
55527;SDS011;52818;43.308;21.916;2023-02-24T01:21:51;25.00;;;17.80;;
55527;SDS011;52818;43.308;21.916;2023-02-24T01:23:56;19.40;;;14.40;;
55527;SDS011;52818;43.308;21.916;2023-02-24T01:25:49;22.50;;;15.10;;
55527;SDS011;52818;43.308;21.916;2023-02-24T01:27:49;19.40;;;13.40;;
55527;SDS011;52818;43.308;21.916;2023-02-24T01:29:49;16.80;;;12.80;;
55527;SDS011;52818;43.308;21.916;2023-02-24T01:31:49;18.70;;;13.80;;
55527;SDS011;52818;43.308;21.916;2023-02-24T01:33:50;18.30;;;12.40;;
55527;SDS011;52818;43.308;21.916;2023-02-24T01:35:52;16.10;;;12.10;;
55527;SDS011;52818;43.308;21.916;2023-02-24T01:37:52;18.40;;;13.00;;
55527;SDS011;52818;43.308;21.916;2023-02-24T01:39:56;20.20;;;14.10;;
55527;SDS011;52818;43.308;21.916;2023-02-24T01:41:50;18.80;;;13.30;;
55527;SDS011;52818;43.308;21.916;2023-02-24T01:43:53;17.70;;;12.50;;
55527;SDS011;52818;43.308;21.916;2023-02-24T01:49:51;17.30;;;12.40;;
55527;SDS011;52818;43.308;21.916;2023-02-24T01:51:51;16.80;;;12.80;;
55527;SDS011;52818;43.308;21.916;2023-02-24T01:53:51;18.10;;;13.20;;
55527;SDS011;52818;43.308;21.916;2023-02-24T01:55:53;21.40;;;14.40;;
55527;SDS011;52818;43.308;21.916;2023-02-24T01:57:51;18.20;;;13.30;;
55527;SDS011;52818;43.308;21.916;2023-02-24T01:59:52;21.40;;;15.60;;
55527;SDS011;52818;43.308;21.916;2023-02-24T02:03:54;22.80;;;15.70;;
55527;SDS011;52818;43.308;21.916;2023-02-24T02:05:53;28.70;;;19.40;;
55527;SDS011;52818;43.308;21.916;2023-02-24T02:07:51;23.50;;;17.60;;
55527;SDS011;52818;43.308;21.916;2023-02-24T02:09:51;26.30;;;;;
55527;SDS011;52818;43.308;21.916;2023-02-24T02:11:52;24.00;;;16.70;;
55527;SDS011;52818;43.308;21.916;2023-02-24T02:13:52;22.10;;;15.20;;
55527;SDS011;52818;43.308;21.916;2023-02-24T02:15:55;21.40;;;;;
55527;SDS011;52818;43.308;21.916;2023-02-24T02:17:54;22.20;;;15.00;;
55527;SDS011;52818;43.308;21.916;2023-02-24T02:20:00;21.90;;;14.90;;
55527;SDS011;52818;43.308;21.916;2023-02-24T02:22:00;22.30;;;16.00;;
55527;SDS011;52818;43.308;21.916;2023-02-24T02:23:55;28.10;;;19.30;;
55527;SDS011;52818;43.308;21.916;2023-02-24T02:25:58;29.80;;;21.30;;
55527;SDS011;52818;43.308;21.916;2023-02-24T02:28:02;34.40;;;23.80;;
55527;SDS011;52818;43.308;21.916;2023-02-24T02:32:03;31.00;;;21.40;;
55527;SDS011;52818;43.308;21.916;2023-02-24T02:34:01;30.10;;;21.70;;
55527;SDS011;52818;43.308;21.916;2023-02-24T02:36:02;31.00;;;;;
55527;SDS011;52818;43.308;21.916;2023-02-24T02:39:59;32.50;;;22.30;;
55527;SDS011;52818;43.308;21.916;2023-02-24T02:41:57;33.90;;;22.60;;
55527;SDS011;52818;43.308;21.916;2023-02-24T02:43:58;32.50;;;22.90;;
55527;SDS011;52818;43.308;21.916;2023-02-24T02:46:03;39.30;;;26.10;;
55527;SDS011;52818;43.308;21.916;2023-02-24T02:47:58;31.70;;;22.50;;
55527;SDS011;52818;43.308;21.916;2023-02-24T02:51:57;28.70;;;19.40;;
55527;SDS011;52818;43.308;21.916;2023-02-24T02:53:57;27.10;;;19.00;;
55527;SDS011;52818;43.308;21.916;2023-02-24T02:55:58;22.40;;;16.10;;
55527;SDS011;52818;43.308;21.916;2023-02-24T02:57:54;21.60;;;15.30;;
55527;SDS011;52818;43.308;21.916;2023-02-24T02:59:55;20.10;;;13.90;;
55527;SDS011;52818;43.308;21.916;2023-02-24T03:03:55;42.70;;;21.70;;
55527;SDS011;52818;43.308;21.916;2023-02-24T03:05:59;46.10;;;24.00;;
55527;SDS011;52818;43.308;21.916;2023-02-24T03:07:57;51.40;;;28.70;;
55527;SDS011;52818;43.308;21.916;2023-02-24T03:09:54;57.80;;;30.90;;
55527;SDS011;52818;43.308;21.916;2023-02-24T03:11:55;63.50;;;34.50;;
55527;SDS011;52818;43.308;21.916;2023-02-24T03:13:55;57.20;;;31.60;;
55527;SDS011;52818;43.308;21.916;2023-02-24T03:18:02;48.60;;;28.20;;
55527;SDS011;52818;43.308;21.916;2023-02-24T03:19:57;39.50;;;25.20;;
55527;SDS011;52818;43.308;21.916;2023-02-24T03:21:56;36.30;;;24.60;;
55527;SDS011;52818;43.308;21.916;2023-02-24T03:23:58;36.70;;;24.80;;
55527;SDS011;52818;43.308;21.916;2023-02-24T03:26:01;41.20;;;26.90;;
55527;SDS011;52818;43.308;21.916;2023-02-24T03:28:04;45.30;;;30.90;;
55527;SDS011;52818;43.308;21.916;2023-02-24T03:29:56;40.10;;;26.20;;
55527;SDS011;52818;43.308;21.916;2023-02-24T03:31:57;33.00;;;22.70;;
55527;SDS011;52818;43.308;21.916;2023-02-24T03:34:01;30.70;;;21.60;;
55527;SDS011;52818;43.308;21.916;2023-02-24T03:35:56;34.40;;;23.60;;
55527;SDS011;52818;43.308;21.916;2023-02-24T03:37:56;36.70;;;24.20;;
55527;SDS011;52818;43.308;21.916;2023-02-24T03:41:57;;;;23.90;;
55527;SDS011;52818;43.308;21.916;2023-02-24T03:43:56;32.40;;;22.80;;
55527;SDS011;52818;43.308;21.916;2023-02-24T03:46:01;32.20;;;22.50;;
55527;SDS011;52818;43.308;21.916;2023-02-24T03:48:00;30.90;;;21.20;;
55527;SDS011;52818;43.308;21.916;2023-02-24T03:49:56;27.70;;;19.80;;
55527;SDS011;52818;43.308;21.916;2023-02-24T03:52:08;28.90;;;19.90;;
55527;SDS011;52818;43.308;21.916;2023-02-24T03:54:00;30.10;;;19.80;;
55527;SDS011;52818;43.308;21.916;2023-02-24T03:55:59;26.40;;;19.20;;
55527;SDS011;52818;43.308;21.916;2023-02-24T03:58:02;25.60;;;19.00;;
55527;SDS011;52818;43.308;21.916;2023-02-24T04:00:00;22.80;;;16.10;;
55527;SDS011;52818;43.308;21.916;2023-02-24T04:01:58;;;;16.50;;
55527;SDS011;52818;43.308;21.916;2023-02-24T04:04:04;22.00;;;16.70;;
55527;SDS011;52818;43.308;21.916;2023-02-24T04:06:00;22.70;;;17.40;;
55527;SDS011;52818;43.308;21.916;2023-02-24T04:07:58;25.50;;;18.90;;
55527;SDS011;52818;43.308;21.916;2023-02-24T04:10:02;26.80;;;19.90;;
55527;SDS011;52818;43.308;21.916;2023-02-24T04:12:03;24.40;;;18.80;;
55527;SDS011;52818;43.308;21.916;2023-02-24T04:14:01;26.40;;;18.90;;
55527;SDS011;52818;43.308;21.916;2023-02-24T04:16:00;27.20;;;18.50;;
55527;SDS011;52818;43.308;21.916;2023-02-24T04:18:00;24.60;;;18.90;;
55527;SDS011;52818;43.308;21.916;2023-02-24T04:20:01;27.00;;;18.80;;
55527;SDS011;52818;43.308;21.916;2023-02-24T04:22:06;25.30;;;18.50;;
55527;SDS011;52818;43.308;21.916;2023-02-24T04:24:03;25.80;;;18.40;;
55527;SDS011;52818;43.308;21.916;2023-02-24T04:28:01;26.80;;;18.30;;
55527;SDS011;52818;43.308;21.916;2023-02-24T04:30:01;28.90;;;21.30;;
55527;SDS011;52818;43.308;21.916;2023-02-24T04:31:59;36.80;;;25.80;;
55527;SDS011;52818;43.308;21.916;2023-02-24T04:33:58;42.00;;;28.60;;
55527;SDS011;52818;43.308;21.916;2023-02-24T04:35:58;38.90;;;26.80;;
55527;SDS011;52818;43.308;21.916;2023-02-24T04:38:04;39.20;;;27.40;;
55527;SDS011;52818;43.308;21.916;2023-02-24T04:39:59;47.90;;;31.00;;
55527;SDS011;52818;43.308;21.916;2023-02-24T04:41:59;48.20;;;32.40;;
55527;SDS011;52818;43.308;21.916;2023-02-24T04:43:59;44.30;;;28.90;;
55527;SDS011;52818;43.308;21.916;2023-02-24T04:45:59;43.90;;;29.40;;
55527;SDS011;52818;43.308;21.916;2023-02-24T04:48:01;41.00;;;29.30;;
55527;SDS011;52818;43.308;21.916;2023-02-24T04:51:59;43.00;;;29.30;;
55527;SDS011;52818;43.308;21.916;2023-02-24T04:53:59;43.10;;;28.70;;
55527;SDS011;52818;43.308;21.916;2023-02-24T04:56:00;40.70;;;27.90;;
55527;SDS011;52818;43.308;21.916;2023-02-24T04:58:00;46.10;;;30.60;;
55527;SDS011;52818;43.308;21.916;2023-02-24T05:00:00;50.40;;;33.20;;
55527;SDS011;52818;43.308;21.916;2023-02-24T05:02:00;44.80;;;31.20;;
55527;SDS011;52818;43.308;21.916;2023-02-24T05:04:00;45.20;;;32.80;;
55527;SDS011;52818;43.308;21.916;2023-02-24T05:06:05;;;;31.70;;
55527;SDS011;52818;43.308;21.916;2023-02-24T05:08:02;44.70;;;31.40;;
55527;SDS011;52818;43.308;21.916;2023-02-24T05:10:01;43.70;;;29.20;;
55527;SDS011;52818;43.308;21.916;2023-02-24T05:12:00;57.40;;;38.90;;
55527;SDS011;52818;43.308;21.916;2023-02-24T05:14:08;65.10;;;44.10;;
55527;SDS011;52818;43.308;21.916;2023-02-24T05:16:02;55.20;;;38.30;;
55527;SDS011;52818;43.308;21.916;2023-02-24T05:18:01;55.80;;;39.20;;
55527;SDS011;52818;43.308;21.916;2023-02-24T05:20:01;51.90;;;37.20;;
55527;SDS011;52818;43.308;21.916;2023-02-24T05:22:01;50.20;;;34.70;;
55527;SDS011;52818;43.308;21.916;2023-02-24T05:24:01;46.50;;;33.10;;
55527;SDS011;52818;43.308;21.916;2023-02-24T05:26:05;49.70;;;34.00;;
55527;SDS011;52818;43.308;21.916;2023-02-24T05:28:01;54.20;;;36.10;;
55527;SDS011;52818;43.308;21.916;2023-02-24T05:30:01;59.10;;;38.20;;
55527;SDS011;52818;43.308;21.916;2023-02-24T05:32:04;53.90;;;35.90;;
55527;SDS011;52818;43.308;21.916;2023-02-24T05:34:02;52.90;;;35.40;;
55527;SDS011;52818;43.308;21.916;2023-02-24T05:36:02;51.50;;;34.90;;
55527;SDS011;52818;43.308;21.916;2023-02-24T05:38:09;52.40;;;34.60;;
55527;SDS011;52818;43.308;21.916;2023-02-24T05:40:02;54.00;;;36.10;;
55527;SDS011;52818;43.308;21.916;2023-02-24T05:42:07;52.10;;;35.50;;
55527;SDS011;52818;43.308;21.916;2023-02-24T05:44:03;50.00;;;34.50;;
55527;SDS011;52818;43.308;21.916;2023-02-24T05:46:06;51.90;;;35.00;;
55527;SDS011;52818;43.308;21.916;2023-02-24T05:48:10;62.30;;;41.50;;
55527;SDS011;52818;43.308;21.916;2023-02-24T05:50:02;83.60;;;52.50;;
55527;SDS011;52818;43.308;21.916;2023-02-24T05:52:08;48.60;;;33.40;;
55527;SDS011;52818;43.308;21.916;2023-02-24T05:54:02;44.80;;;31.40;;
55527;SDS011;52818;43.308;21.916;2023-02-24T05:56:03;38.40;;;27.00;;
55527;SDS011;52818;43.308;21.916;2023-02-24T05:58:02;29.70;;;22.60;;
55527;SDS011;52818;43.308;21.916;2023-02-24T06:00:05;31.20;;;22.50;;
55527;SDS011;52818;43.308;21.916;2023-02-24T06:02:04;;;;22.10;;
55527;SDS011;52818;43.308;21.916;2023-02-24T06:06:04;30.20;;;21.90;;
55527;SDS011;52818;43.308;21.916;2023-02-24T06:08:04;31.20;;;21.60;;
55527;SDS011;52818;43.308;21.916;2023-02-24T06:10:13;28.50;;;21.80;;
55527;SDS011;52818;43.308;21.916;2023-02-24T06:12:08;29.70;;;;;
55527;SDS011;52818;43.308;21.916;2023-02-24T06:16:04;30.40;;;22.70;;
55527;SDS011;52818;43.308;21.916;2023-02-24T06:18:04;;;;23.80;;
55527;SDS011;52818;43.308;21.916;2023-02-24T06:20:07;33.50;;;;;
55527;SDS011;52818;43.308;21.916;2023-02-24T06:22:09;32.40;;;23.70;;
55527;SDS011;52818;43.308;21.916;2023-02-24T06:24:05;31.80;;;25.20;;
55527;SDS011;52818;43.308;21.916;2023-02-24T06:26:04;36.80;;;27.10;;
55527;SDS011;52818;43.308;21.916;2023-02-24T06:28:11;34.30;;;25.70;;
55527;SDS011;52818;43.308;21.916;2023-02-24T06:30:06;32.60;;;24.80;;
55527;SDS011;52818;43.308;21.916;2023-02-24T06:32:08;32.20;;;25.00;;
55527;SDS011;52818;43.308;21.916;2023-02-24T06:34:07;34.20;;;25.50;;
55527;SDS011;52818;43.308;21.916;2023-02-24T06:36:09;33.70;;;25.30;;
55527;SDS011;52818;43.308;21.916;2023-02-24T06:38:09;33.90;;;26.00;;
55527;SDS011;52818;43.308;21.916;2023-02-24T06:40:05;30.60;;;23.70;;
55527;SDS011;52818;43.308;21.916;2023-02-24T06:42:11;41.60;;;28.70;;
55527;SDS011;52818;43.308;21.916;2023-02-24T06:44:08;39.10;;;29.70;;
55527;SDS011;52818;43.308;21.916;2023-02-24T06:46:05;43.10;;;30.80;;
55527;SDS011;52818;43.308;21.916;2023-02-24T06:48:05;46.60;;;34.10;;
55527;SDS011;52818;43.308;21.916;2023-02-24T06:52:06;54.50;;;37.60;;
55527;SDS011;52818;43.308;21.916;2023-02-24T06:54:15;53.40;;;37.50;;
55527;SDS011;52818;43.308;21.916;2023-02-24T06:56:14;58.80;;;38.90;;
55527;SDS011;52818;43.308;21.916;2023-02-24T06:58:13;50.10;;;34.20;;
55527;SDS011;52818;43.308;21.916;2023-02-24T07:02:08;42.20;;;29.90;;
55527;SDS011;52818;43.308;21.916;2023-02-24T07:04:12;45.00;;;31.00;;
55527;SDS011;52818;43.308;21.916;2023-02-24T07:06:08;45.40;;;31.40;;
55527;SDS011;52818;43.308;21.916;2023-02-24T07:08:07;42.90;;;29.90;;
55527;SDS011;52818;43.308;21.916;2023-02-24T07:10:08;42.50;;;30.30;;
55527;SDS011;52818;43.308;21.916;2023-02-24T07:12:10;45.20;;;31.90;;
55527;SDS011;52818;43.308;21.916;2023-02-24T07:14:07;43.50;;;30.20;;
55527;SDS011;52818;43.308;21.916;2023-02-24T07:18:12;43.50;;;31.30;;
55527;SDS011;52818;43.308;21.916;2023-02-24T07:20:13;41.80;;;29.10;;
55527;SDS011;52818;43.308;21.916;2023-02-24T07:22:42;49.40;;;30.60;;
55527;SDS011;52818;43.308;21.916;2023-02-24T07:24:36;43.30;;;31.50;;
55527;SDS011;52818;43.308;21.916;2023-02-24T07:26:36;43.20;;;30.60;;
55527;SDS011;52818;43.308;21.916;2023-02-24T07:28:36;46.70;;;31.90;;
55527;SDS011;52818;43.308;21.916;2023-02-24T07:30:37;45.40;;;32.90;;
55527;SDS011;52818;43.308;21.916;2023-02-24T07:32:36;43.20;;;32.10;;
55527;SDS011;52818;43.308;21.916;2023-02-24T07:34:45;45.80;;;31.30;;
55527;SDS011;52818;43.308;21.916;2023-02-24T07:36:37;41.00;;;31.10;;
55527;SDS011;52818;43.308;21.916;2023-02-24T07:38:42;41.10;;;30.00;;
55527;SDS011;52818;43.308;21.916;2023-02-24T07:40:38;41.70;;;30.80;;
55527;SDS011;52818;43.308;21.916;2023-02-24T07:42:37;46.60;;;32.20;;
55527;SDS011;52818;43.308;21.916;2023-02-24T07:44:37;41.40;;;31.40;;
55527;SDS011;52818;43.308;21.916;2023-02-24T07:46:41;45.50;;;32.90;;
55527;SDS011;52818;43.308;21.916;2023-02-24T07:48:38;48.60;;;33.00;;
55527;SDS011;52818;43.308;21.916;2023-02-24T07:50:39;45.70;;;32.10;;
55527;SDS011;52818;43.308;21.916;2023-02-24T07:52:38;46.30;;;32.70;;
55527;SDS011;52818;43.308;21.916;2023-02-24T07:54:38;48.60;;;34.10;;
55527;SDS011;52818;43.308;21.916;2023-02-24T07:56:38;51.70;;;35.60;;
55527;SDS011;52818;43.308;21.916;2023-02-24T07:58:38;47.50;;;33.70;;
55527;SDS011;52818;43.308;21.916;2023-02-24T08:00:38;43.60;;;30.80;;
55527;SDS011;52818;43.308;21.916;2023-02-24T08:02:38;41.80;;;29.90;;
55527;SDS011;52818;43.308;21.916;2023-02-24T08:04:38;46.90;;;32.20;;
55527;SDS011;52818;43.308;21.916;2023-02-24T08:06:39;41.90;;;29.20;;
55527;SDS011;52818;43.308;21.916;2023-02-24T08:08:39;41.10;;;29.30;;
55527;SDS011;52818;43.308;21.916;2023-02-24T08:10:39;40.30;;;30.60;;
55527;SDS011;52818;43.308;21.916;2023-02-24T08:12:46;39.00;;;29.10;;
55527;SDS011;52818;43.308;21.916;2023-02-24T08:14:39;44.60;;;32.00;;
55527;SDS011;52818;43.308;21.916;2023-02-24T08:16:40;51.30;;;33.70;;
55527;SDS011;52818;43.308;21.916;2023-02-24T08:18:39;42.60;;;31.80;;
55527;SDS011;52818;43.308;21.916;2023-02-24T08:20:42;41.80;;;30.70;;
55527;SDS011;52818;43.308;21.916;2023-02-24T08:22:50;43.70;;;30.50;;
55527;SDS011;52818;43.308;21.916;2023-02-24T08:24:44;38.40;;;27.60;;
55527;SDS011;52818;43.308;21.916;2023-02-24T08:26:39;41.70;;;28.90;;
55527;SDS011;52818;43.308;21.916;2023-02-24T08:28:40;40.60;;;;;
55527;SDS011;52818;43.308;21.916;2023-02-24T08:34:40;39.70;;;26.80;;
55527;SDS011;52818;43.308;21.916;2023-02-24T08:36:40;37.10;;;28.50;;
55527;SDS011;52818;43.308;21.916;2023-02-24T08:40:42;36.10;;;25.90;;
55527;SDS011;52818;43.308;21.916;2023-02-24T08:42:40;39.70;;;26.70;;
55527;SDS011;52818;43.308;21.916;2023-02-24T08:44:41;40.00;;;27.30;;
55527;SDS011;52818;43.308;21.916;2023-02-24T08:46:45;39.70;;;26.50;;
55527;SDS011;52818;43.308;21.916;2023-02-24T08:48:47;38.20;;;26.70;;
55527;SDS011;52818;43.308;21.916;2023-02-24T08:50:48;37.10;;;27.10;;
55527;SDS011;52818;43.308;21.916;2023-02-24T08:52:41;40.60;;;28.60;;
55527;SDS011;52818;43.308;21.916;2023-02-24T08:54:41;43.30;;;31.40;;
55527;SDS011;52818;43.308;21.916;2023-02-24T08:58:42;45.30;;;34.80;;
55527;SDS011;52818;43.308;21.916;2023-02-24T09:00:41;52.30;;;40.60;;
55527;SDS011;52818;43.308;21.916;2023-02-24T09:02:47;50.30;;;37.80;;
55527;SDS011;52818;43.308;21.916;2023-02-24T09:04:42;49.50;;;35.90;;
55527;SDS011;52818;43.308;21.916;2023-02-24T09:06:42;43.50;;;33.30;;
55527;SDS011;52818;43.308;21.916;2023-02-24T09:08:44;44.40;;;32.30;;
55527;SDS011;52818;43.308;21.916;2023-02-24T09:10:45;49.90;;;33.20;;
55527;SDS011;52818;43.308;21.916;2023-02-24T09:14:48;44.70;;;32.90;;
55527;SDS011;52818;43.308;21.916;2023-02-24T09:16:44;44.00;;;32.30;;
55527;SDS011;52818;43.308;21.916;2023-02-24T09:18:45;41.70;;;30.60;;
55527;SDS011;52818;43.308;21.916;2023-02-24T09:20:50;42.00;;;30.30;;
55527;SDS011;52818;43.308;21.916;2023-02-24T09:22:45;36.00;;;26.30;;
55527;SDS011;52818;43.308;21.916;2023-02-24T09:24:42;35.00;;;27.20;;
55527;SDS011;52818;43.308;21.916;2023-02-24T09:26:43;38.10;;;27.10;;
55527;SDS011;52818;43.308;21.916;2023-02-24T09:28:43;33.00;;;24.70;;
55527;SDS011;52818;43.308;21.916;2023-02-24T09:30:53;36.80;;;27.20;;
55527;SDS011;52818;43.308;21.916;2023-02-24T09:32:43;38.00;;;27.00;;
55527;SDS011;52818;43.308;21.916;2023-02-24T09:34:43;39.20;;;28.60;;
55527;SDS011;52818;43.308;21.916;2023-02-24T09:36:43;38.30;;;29.10;;
55527;SDS011;52818;43.308;21.916;2023-02-24T09:40:44;35.10;;;26.10;;
55527;SDS011;52818;43.308;21.916;2023-02-24T09:42:43;39.50;;;26.90;;
55527;SDS011;52818;43.308;21.916;2023-02-24T09:44:45;35.60;;;25.50;;
55527;SDS011;52818;43.308;21.916;2023-02-24T09:46:44;34.90;;;24.90;;
55527;SDS011;52818;43.308;21.916;2023-02-24T09:48:45;34.10;;;25.50;;
55527;SDS011;52818;43.308;21.916;2023-02-24T09:50:44;36.60;;;26.40;;
55527;SDS011;52818;43.308;21.916;2023-02-24T09:52:44;125.40;;;71.20;;
55527;SDS011;52818;43.308;21.916;2023-02-24T09:54:45;54.30;;;39.10;;
55527;SDS011;52818;43.308;21.916;2023-02-24T09:56:47;63.00;;;44.00;;
55527;SDS011;52818;43.308;21.916;2023-02-24T09:58:45;41.90;;;30.10;;
55527;SDS011;52818;43.308;21.916;2023-02-24T10:00:47;40.00;;;30.70;;
55527;SDS011;52818;43.308;21.916;2023-02-24T10:02:46;37.20;;;29.00;;
55527;SDS011;52818;43.308;21.916;2023-02-24T10:04:53;37.80;;;28.00;;
55527;SDS011;52818;43.308;21.916;2023-02-24T10:08:52;33.90;;;;;
55527;SDS011;52818;43.308;21.916;2023-02-24T10:12:51;32.00;;;24.90;;
55527;SDS011;52818;43.308;21.916;2023-02-24T10:14:54;38.80;;;27.10;;
55527;SDS011;52818;43.308;21.916;2023-02-24T10:16:45;33.20;;;24.50;;
55527;SDS011;52818;43.308;21.916;2023-02-24T10:18:46;36.10;;;25.00;;
55527;SDS011;52818;43.308;21.916;2023-02-24T10:20:45;35.10;;;24.90;;
55527;SDS011;52818;43.308;21.916;2023-02-24T10:22:55;33.40;;;24.30;;
55527;SDS011;52818;43.308;21.916;2023-02-24T10:24:50;37.50;;;28.50;;
55527;SDS011;52818;43.308;21.916;2023-02-24T10:26:51;56.40;;;45.70;;
55527;SDS011;52818;43.308;21.916;2023-02-24T10:28:47;38.20;;;30.20;;
55527;SDS011;52818;43.308;21.916;2023-02-24T10:32:56;30.30;;;25.00;;
55527;SDS011;52818;43.308;21.916;2023-02-24T10:34:46;33.90;;;24.80;;
55527;SDS011;52818;43.308;21.916;2023-02-24T10:36:46;34.50;;;27.50;;
55527;SDS011;52818;43.308;21.916;2023-02-24T10:38:46;32.60;;;25.30;;
55527;SDS011;52818;43.308;21.916;2023-02-24T10:40:47;31.20;;;24.20;;
55527;SDS011;52818;43.308;21.916;2023-02-24T10:42:46;28.30;;;22.50;;
55527;SDS011;52818;43.308;21.916;2023-02-24T10:45:09;30.70;;;24.50;;
55527;SDS011;52818;43.308;21.916;2023-02-24T10:46:46;31.50;;;23.30;;
55527;SDS011;52818;43.308;21.916;2023-02-24T10:48:50;34.40;;;23.40;;
55527;SDS011;52818;43.308;21.916;2023-02-24T10:50:47;34.20;;;25.20;;
55527;SDS011;52818;43.308;21.916;2023-02-24T10:52:49;35.30;;;26.00;;
55527;SDS011;52818;43.308;21.916;2023-02-24T10:54:47;31.00;;;24.10;;
55527;SDS011;52818;43.308;21.916;2023-02-24T10:56:47;29.50;;;22.80;;
55527;SDS011;52818;43.308;21.916;2023-02-24T10:58:48;31.90;;;24.00;;
55527;SDS011;52818;43.308;21.916;2023-02-24T11:00:48;39.30;;;29.50;;
55527;SDS011;52818;43.308;21.916;2023-02-24T11:02:49;34.10;;;25.30;;
55527;SDS011;52818;43.308;21.916;2023-02-24T11:04:47;29.70;;;22.30;;
55527;SDS011;52818;43.308;21.916;2023-02-24T11:07:00;28.60;;;21.70;;
55527;SDS011;52818;43.308;21.916;2023-02-24T11:08:55;;;;20.90;;
55527;SDS011;52818;43.308;21.916;2023-02-24T11:10:50;27.50;;;20.20;;
55527;SDS011;52818;43.308;21.916;2023-02-24T11:12:48;27.60;;;20.80;;
55527;SDS011;52818;43.308;21.916;2023-02-24T11:14:50;25.80;;;19.80;;
55527;SDS011;52818;43.308;21.916;2023-02-24T11:16:49;22.30;;;18.20;;
55527;SDS011;52818;43.308;21.916;2023-02-24T11:18:48;24.60;;;17.80;;
55527;SDS011;52818;43.308;21.916;2023-02-24T11:20:49;25.40;;;20.10;;
55527;SDS011;52818;43.308;21.916;2023-02-24T11:22:48;27.80;;;19.80;;
55527;SDS011;52818;43.308;21.916;2023-02-24T11:24:48;21.20;;;16.70;;
55527;SDS011;52818;43.308;21.916;2023-02-24T11:26:48;21.40;;;15.80;;
55527;SDS011;52818;43.308;21.916;2023-02-24T11:28:58;19.00;;;14.10;;
55527;SDS011;52818;43.308;21.916;2023-02-24T11:30:50;21.10;;;14.90;;
55527;SDS011;52818;43.308;21.916;2023-02-24T11:32:52;19.90;;;13.70;;
55527;SDS011;52818;43.308;21.916;2023-02-24T11:34:54;19.00;;;13.60;;
55527;SDS011;52818;43.308;21.916;2023-02-24T11:36:53;20.30;;;13.10;;
55527;SDS011;52818;43.308;21.916;2023-02-24T11:38:53;16.70;;;12.40;;
55527;SDS011;52818;43.308;21.916;2023-02-24T11:40:50;20.10;;;13.70;;
55527;SDS011;52818;43.308;21.916;2023-02-24T11:42:50;17.50;;;13.00;;
55527;SDS011;52818;43.308;21.916;2023-02-24T11:45:24;16.80;;;12.90;;
55527;SDS011;52818;43.308;21.916;2023-02-24T11:47:21;17.50;;;12.80;;
55527;SDS011;52818;43.308;21.916;2023-02-24T11:51:21;16.00;;;10.90;;
55527;SDS011;52818;43.308;21.916;2023-02-24T11:57:26;15.20;;;10.90;;
55527;SDS011;52818;43.308;21.916;2023-02-24T11:59:21;16.80;;;10.70;;
55527;SDS011;52818;43.308;21.916;2023-02-24T12:05:29;16.70;;;7.90;;
55527;SDS011;52818;43.308;21.916;2023-02-24T12:07:24;14.10;;;6.30;;
55527;SDS011;52818;43.308;21.916;2023-02-24T12:09:21;10.30;;;5.80;;
55527;SDS011;52818;43.308;21.916;2023-02-24T12:13:27;11.20;;;5.30;;
55527;SDS011;52818;43.308;21.916;2023-02-24T12:15:22;9.90;;;5.40;;
55527;SDS011;52818;43.308;21.916;2023-02-24T12:17:30;10.80;;;6.10;;
55527;SDS011;52818;43.308;21.916;2023-02-24T12:19:22;12.70;;;5.40;;
55527;SDS011;52818;43.308;21.916;2023-02-24T12:21:25;12.40;;;6.20;;
55527;SDS011;52818;43.308;21.916;2023-02-24T12:25:29;12.00;;;5.60;;
55527;SDS011;52818;43.308;21.916;2023-02-24T12:27:32;10.40;;;;;
55527;SDS011;52818;43.308;21.916;2023-02-24T12:29:30;12.80;;;5.80;;
55527;SDS011;52818;43.308;21.916;2023-02-24T12:31:23;12.20;;;6.60;;
55527;SDS011;52818;43.308;21.916;2023-02-24T12:37:58;11.10;;;5.40;;
55527;SDS011;52818;43.308;21.916;2023-02-24T12:39:27;8.70;;;5.70;;
55527;SDS011;52818;43.308;21.916;2023-02-24T12:41:26;9.40;;;5.10;;
55527;SDS011;52818;43.308;21.916;2023-02-24T12:43:24;12.30;;;6.20;;
55527;SDS011;52818;43.308;21.916;2023-02-24T12:45:25;;;;7.00;;
55527;SDS011;52818;43.308;21.916;2023-02-24T12:47:24;11.50;;;5.80;;
55527;SDS011;52818;43.308;21.916;2023-02-24T12:51:31;11.70;;;6.30;;